Time;durP1;ratioP1;P1;durP2;ratioP2;P2;SDS_P1;SDS_P2;PMS_P1;PMS_P2;Temp;Humidity;BMP_temperature;BMP_pressure;BME280_temperature;BME280_humidity;BME280_pressure;Samples;Min_cycle;Max_cycle;Signal;HPM_P1;HPM_P2
2023/03/05 00:01:04;;;;;;;41.17;25.05;;;;;;;;;;5099521;28;20385;-42
2023/03/05 00:03:29;;;;;;;44.42;25.65;;;;;;;;;;5097702;28;20403;-42
2023/03/05 00:05:56;;;;;;;45.05;25.40;;;;;;;;;;5100097;28;20016;-42
2023/03/05 00:08:22;;;;;;;45.08;25.40;;;;;;;;;;5097961;28;20123;-43
2023/03/05 00:11:04;;;;;;;44.00;24.65;;;;;;;;;;5101057;28;20098;-43
2023/03/05 00:13:30;;;;;;;;;;;;;;;;;;5099543;28;20123;-42
2023/03/05 00:15:55;;;;;;;45.40;23.95;;;;;;;;;;5098510;28;19998;-42
2023/03/05 00:18:22;;;;;;;40.38;25.45;;;;;;;;;;5101801;28;20035;-42
2023/03/05 00:20:48;;;;;;;43.97;25.52;;;;;;;;;;5103017;28;20038;-42
2023/03/05 00:23:22;;;;;;;42.03;24.10;;;;;;;;;;5097176;28;20024;-43
2023/03/05 00:25:48;;;;;;;47.42;24.00;;;;;;;;;;5097761;28;20028;-44
2023/03/05 00:28:13;;;;;;;41.42;24.58;;;;;;;;;;5099395;27;20031;-43
2023/03/05 00:30:39;;;;;;;46.15;25.38;;;;;;;;;;5100205;28;20031;-43
2023/03/05 00:33:04;;;;;;;38.63;24.15;;;;;;;;;;5102339;28;20026;-44
2023/03/05 00:35:45;;;;;;;44.55;24.83;;;;;;;;;;5101634;28;20043;-43
2023/03/05 00:38:11;;;;;;;45.33;23.85;;;;;;;;;;5097871;28;20055;-42
2023/03/05 00:40:42;;;;;;;41.63;23.95;;;;;;;;;;5097153;28;20039;-44
2023/03/05 00:43:09;;;;;;;43.80;24.33;;;;;;;;;;5098345;28;20356;-43
2023/03/05 00:45:34;;;;;;;38.03;23.67;;;;;;;;;;5100604;28;20024;-43
2023/03/05 00:48:03;;;;;;;38.85;23.20;;;;;;;;;;5101171;28;20028;-43
2023/03/05 00:50:29;;;;;;;48.72;24.55;;;;;;;;;;5102753;28;20503;-41
2023/03/05 00:53:00;;;;;;;42.42;24.83;;;;;;;;;;5100406;28;20030;-42
2023/03/05 00:55:26;;;;;;;41.05;24.33;;;;;;;;;;5100793;28;20028;-43
2023/03/05 00:57:51;;;;;;;41.58;24.52;;;;;;;;;;5098407;28;20421;-42
2023/03/05 01:00:17;;;;;;;39.65;23.65;;;;;;;;;;5098723;28;20036;-44
2023/03/05 01:02:42;;;;;;;40.08;23.38;;;;;;;;;;5098602;28;20068;-42
2023/03/05 01:05:21;;;;;;;38.95;24.23;;;;;;;;;;5096702;28;20047;-42
2023/03/05 01:07:46;;;;;;;43.88;23.42;;;;;;;;;;5098064;28;20031;-42
2023/03/05 01:10:12;;;;;;;44.72;23.58;;;;;;;;;;5099945;28;20515;-41
2023/03/05 01:12:38;;;;;;;37.80;23.23;;;;;;;;;;5100803;28;20032;-43
2023/03/05 01:15:04;;;;;;;37.45;22.05;;;;;;;;;;5098271;28;20093;-42
2023/03/05 01:17:38;;;;;;;36.67;22.13;;;;;;;;;;5096407;28;20107;-44
2023/03/05 01:20:05;;;;;;;37.90;22.02;;;;;;;;;;5094811;28;20029;-42
2023/03/05 01:22:30;;;;;;;38.03;21.20;;;;;;;;;;5099397;28;20035;-42
2023/03/05 01:24:56;;;;;;;39.47;22.52;;;;;;;;;;5099729;28;20029;-41
2023/03/05 01:27:22;;;;;;;39.65;22.05;;;;;;;;;;5100011;28;20031;-42
2023/03/05 01:29:47;;;;;;;40.60;22.42;;;;;;;;;;5101143;28;20040;-43
2023/03/05 01:32:12;;;;;;;33.08;20.48;;;;;;;;;;5096549;28;20032;-44
2023/03/05 01:34:38;;;;;;;34.50;21.17;;;;;;;;;;5094366;28;20031;-44
2023/03/05 01:37:04;;;;;;;33.28;20.00;;;;;;;;;;5099194;28;20034;-42
2023/03/05 01:39:29;;;;;;;31.17;20.13;;;;;;;;;;5097389;28;20032;-41
2023/03/05 01:41:55;;;;;;;42.20;20.65;;;;;;;;;;5097456;28;20031;-42
2023/03/05 01:44:26;;;;;;;29.52;18.80;;;;;;;;;;5097001;28;20461;-44
2023/03/05 01:46:52;;;;;;;40.92;20.98;;;;;;;;;;5096747;28;20028;-44
2023/03/05 01:49:26;;;;;;;33.60;19.60;;;;;;;;;;5096449;28;20035;-42
2023/03/05 01:52:21;;;;;;;36.20;19.20;;;;;;;;;;5100033;28;21549;-42
2023/03/05 01:54:50;;;;;;;35.08;18.55;;;;;;;;;;5103621;28;20146;-42
2023/03/05 01:57:21;;;;;;;37.55;19.77;;;;;;;;;;5103937;28;20078;-41
2023/03/05 01:59:51;;;;;;;33.72;19.30;;;;;;;;;;5103595;28;20542;-42
2023/03/05 02:02:17;;;;;;;37.00;19.65;;;;;;;;;;5105177;28;20542;-42
2023/03/05 02:04:47;;;;;;;35.63;18.02;;;;;;;;;;5104682;28;20496;-47
2023/03/05 02:07:14;;;;;;;31.52;18.58;;;;;;;;;;5100286;28;20035;-41
2023/03/05 02:09:40;;;;;;;38.13;17.75;;;;;;;;;;5102344;28;20044;-41
2023/03/05 02:12:07;;;;;;;36.40;18.65;;;;;;;;;;5106240;28;20028;-42
2023/03/05 02:14:45;;;;;;;32.67;18.67;;;;;;;;;;5102552;28;20035;-42
2023/03/05 02:17:15;;;;;;;39.60;19.08;;;;;;;;;;5103883;28;20485;-42
2023/03/05 02:19:55;;;;;;;31.52;18.13;;;;;;;;;;5106096;28;20038;-42
2023/03/05 02:22:23;;;;;;;33.03;17.65;;;;;;;;;;5102235;27;21182;-41
2023/03/05 02:24:49;;;;;;;31.20;17.25;;;;;;;;;;5100797;28;20036;-41
2023/03/05 02:27:15;;;;;;;31.88;17.00;;;;;;;;;;5101037;28;20772;-41
2023/03/05 02:29:43;;;;;;;29.88;16.65;;;;;;;;;;5102414;28;20051;-41
2023/03/05 02:32:09;;;;;;;33.42;16.67;;;;;;;;;;5104329;28;20096;-44
2023/03/05 02:34:35;;;;;;;31.80;16.33;;;;;;;;;;5101122;28;20504;-41
2023/03/05 02:37:03;;;;;;;31.55;16.67;;;;;;;;;;5101965;28;20100;-43
2023/03/05 02:39:35;;;;;;;30.13;16.95;;;;;;;;;;5097819;28;20039;-44
2023/03/05 02:42:00;;;;;;;28.70;17.10;;;;;;;;;;5102599;28;20031;-45
2023/03/05 02:44:26;;;;;;;32.20;18.40;;;;;;;;;;5100921;28;20058;-44
2023/03/05 02:46:58;;;;;;;35.40;20.55;;;;;;;;;;5101998;28;20469;-46
2023/03/05 02:49:23;;;;;;;43.63;21.70;;;;;;;;;;5101839;28;20069;-44
2023/03/05 02:51:52;;;;;;;39.75;21.80;;;;;;;;;;5098473;28;20031;-42
2023/03/05 02:54:17;;;;;;;44.17;23.75;;;;;;;;;;5105475;27;20129;-42
2023/03/05 02:56:42;;;;;;;44.13;23.58;;;;;;;;;;5101028;28;20020;-43
2023/03/05 02:59:14;;;;;;;49.80;25.40;;;;;;;;;;5100661;28;20035;-46
2023/03/05 03:01:39;;;;;;;41.50;24.38;;;;;;;;;;5100549;28;20034;-47
2023/03/05 03:04:10;;;;;;;44.30;25.65;;;;;;;;;;5103783;27;20031;-45
2023/03/05 03:06:36;;;;;;;44.00;25.65;;;;;;;;;;5101347;28;20077;-44
2023/03/05 03:09:02;;;;;;;44.50;23.83;;;;;;;;;;5096849;28;20040;-45
2023/03/05 03:11:27;;;;;;;44.95;25.48;;;;;;;;;;5101182;28;20024;-41
2023/03/05 03:13:52;;;;;;;42.83;25.90;;;;;;;;;;5095171;28;20039;-42
2023/03/05 03:16:24;;;;;;;50.90;25.10;;;;;;;;;;5102924;28;20027;-42
2023/03/05 03:18:49;;;;;;;42.97;25.83;;;;;;;;;;5100353;28;20063;-41
2023/03/05 03:21:20;;;;;;;42.17;24.90;;;;;;;;;;5101813;28;20468;-42
2023/03/05 03:23:45;;;;;;;50.40;25.63;;;;;;;;;;5101881;27;20044;-42
2023/03/05 03:26:11;;;;;;;48.25;26.73;;;;;;;;;;5103480;28;20034;-43
2023/03/05 03:28:46;;;;;;;40.50;25.63;;;;;;;;;;5103140;28;20055;-41
2023/03/05 03:31:11;;;;;;;42.92;25.48;;;;;;;;;;5101619;28;20023;-44
2023/03/05 03:33:37;;;;;;;38.55;25.45;;;;;;;;;;5105115;28;20404;-44
2023/03/05 03:36:09;;;;;;;42.42;25.30;;;;;;;;;;5100073;28;20387;-44
2023/03/05 03:38:34;;;;;;;41.42;25.60;;;;;;;;;;5097000;28;20032;-45
2023/03/05 03:41:06;;;;;;;35.35;21.70;;;;;;;;;;5101933;28;20024;-43
2023/03/05 03:43:33;;;;;;;47.05;24.38;;;;;;;;;;5098960;28;20068;-43
2023/03/05 03:45:58;;;;;;;43.90;23.77;;;;;;;;;;5098968;28;20069;-44
2023/03/05 03:48:24;;;;;;;46.22;24.65;;;;;;;;;;5096236;28;20032;-44
2023/03/05 03:50:49;;;;;;;43.08;24.92;;;;;;;;;;5102629;28;20472;-44
2023/03/05 03:53:23;;;;;;;37.65;22.75;;;;;;;;;;5098327;28;20023;-44
2023/03/05 03:55:49;;;;;;;46.60;23.23;;;;;;;;;;5101471;28;20437;-47
2023/03/05 03:58:14;;;;;;;41.13;24.15;;;;;;;;;;5100254;28;20028;-41
2023/03/05 04:00:40;;;;;;;41.25;23.67;;;;;;;;;;5102792;28;20023;-41
2023/03/05 04:03:06;;;;;;;39.67;23.58;;;;;;;;;;5100246;28;20043;-44
2023/03/05 04:05:32;;;;;;;41.25;24.58;;;;;;;;;;5101217;28;20035;-45
2023/03/05 04:07:58;;;;;;;43.15;23.55;;;;;;;;;;5102947;28;20369;-44
2023/03/05 04:10:24;;;;;;;41.88;23.35;;;;;;;;;;5099875;28;20040;-44
2023/03/05 04:12:49;;;;;;;43.72;23.27;;;;;;;;;;5095811;28;20048;-45
2023/03/05 04:15:16;;;;;;;46.45;25.15;;;;;;;;;;5098668;28;20032;-47
2023/03/05 04:17:41;;;;;;;40.08;23.35;;;;;;;;;;5098345;28;20081;-44
2023/03/05 04:20:13;;;;;;;38.28;23.55;;;;;;;;;;5094862;27;20048;-44
2023/03/05 04:22:38;;;;;;;46.42;25.13;;;;;;;;;;5098591;28;20464;-44
2023/03/05 04:25:08;;;;;;;40.00;23.45;;;;;;;;;;5101368;28;20123;-44
2023/03/05 04:27:36;;;;;;;40.58;22.30;;;;;;;;;;5098767;28;20027;-45
2023/03/05 04:30:10;;;;;;;41.95;21.88;;;;;;;;;;5101283;28;20039;-44
2023/03/05 04:32:35;;;;;;;42.90;22.73;;;;;;;;;;5100158;28;20085;-45
2023/03/05 04:35:10;;;;;;;38.83;23.08;;;;;;;;;;5096341;28;20686;-43
2023/03/05 04:37:35;;;;;;;42.10;22.95;;;;;;;;;;5100323;28;20023;-44
2023/03/05 04:40:10;;;;;;;41.30;22.88;;;;;;;;;;5096389;28;20043;-45
2023/03/05 04:42:36;;;;;;;42.50;22.55;;;;;;;;;;5096339;28;20124;-43
2023/03/05 04:45:16;;;;;;;46.70;23.83;;;;;;;;;;5103577;28;20036;-45
2023/03/05 04:47:42;;;;;;;43.67;22.08;;;;;;;;;;5098774;28;20028;-44
2023/03/05 04:50:09;;;;;;;43.05;23.33;;;;;;;;;;5097183;28;20055;-43
2023/03/05 04:52:38;;;;;;;44.30;22.77;;;;;;;;;;5098854;28;20024;-43
2023/03/05 04:55:04;;;;;;;43.97;22.83;;;;;;;;;;5094415;28;20043;-47
2023/03/05 04:57:29;;;;;;;40.40;20.60;;;;;;;;;;5093835;28;20032;-43
2023/03/05 05:00:06;;;;;;;38.53;20.80;;;;;;;;;;5100285;28;20508;-43
2023/03/05 05:02:33;;;;;;;39.83;20.15;;;;;;;;;;5100480;28;20584;-43
2023/03/05 05:04:58;;;;;;;38.13;19.42;;;;;;;;;;5099625;28;20381;-42
2023/03/05 05:07:23;;;;;;;34.63;18.75;;;;;;;;;;5101578;28;20472;-43
2023/03/05 05:09:49;;;;;;;34.92;18.58;;;;;;;;;;5098558;28;20051;-44
2023/03/05 05:12:20;;;;;;;32.63;18.65;;;;;;;;;;5094872;28;20119;-44
2023/03/05 05:14:46;;;;;;;38.15;19.35;;;;;;;;;;5100902;28;20036;-43
2023/03/05 05:17:11;;;;;;;39.85;19.05;;;;;;;;;;5097406;28;20553;-49
2023/03/05 05:19:36;;;;;;;39.40;18.77;;;;;;;;;;5099894;28;20036;-43
2023/03/05 05:22:02;;;;;;;41.75;19.10;;;;;;;;;;5099380;28;20057;-46
2023/03/05 05:24:27;;;;;;;38.42;19.75;;;;;;;;;;5098652;28;20050;-43
2023/03/05 05:26:57;;;;;;;42.97;20.90;;;;;;;;;;5102794;28;20024;-46
2023/03/05 05:29:22;;;;;;;39.75;19.75;;;;;;;;;;5104048;28;20067;-43
2023/03/05 05:31:48;;;;;;;41.00;20.73;;;;;;;;;;5105631;28;20047;-43
2023/03/05 05:34:14;;;;;;;36.85;19.02;;;;;;;;;;5107541;28;20046;-43
2023/03/05 05:36:40;;;;;;;39.85;19.30;;;;;;;;;;5106450;28;20080;-46
2023/03/05 05:39:09;;;;;;;37.65;19.50;;;;;;;;;;5103780;28;21819;-43
2023/03/05 05:41:35;;;;;;;38.70;19.77;;;;;;;;;;5101105;28;20036;-44
2023/03/05 05:44:03;;;;;;;35.05;18.52;;;;;;;;;;5100485;28;20503;-44
2023/03/05 05:46:29;;;;;;;39.28;20.35;;;;;;;;;;5105764;28;20115;-43
2023/03/05 05:48:54;;;;;;;42.97;20.92;;;;;;;;;;5106108;28;20122;-43
2023/03/05 05:51:23;;;;;;;36.78;20.58;;;;;;;;;;5099867;28;20028;-46
2023/03/05 05:53:48;;;;;;;37.50;20.42;;;;;;;;;;5097492;28;20123;-42
2023/03/05 05:56:15;;;;;;;39.30;21.23;;;;;;;;;;5098946;28;20107;-45
2023/03/05 05:58:42;;;;;;;39.50;19.23;;;;;;;;;;5101428;28;20475;-43
2023/03/05 06:01:12;;;;;;;44.03;20.95;;;;;;;;;;5098844;28;20020;-43
2023/03/05 06:03:38;;;;;;;36.40;19.50;;;;;;;;;;5102510;28;20040;-44
2023/03/05 06:06:08;;;;;;;44.10;21.05;;;;;;;;;;5103098;28;20023;-44
2023/03/05 06:08:33;;;;;;;38.25;19.83;;;;;;;;;;5100092;28;20586;-43
2023/03/05 06:10:59;;;;;;;39.42;19.05;;;;;;;;;;5101957;28;20035;-44
2023/03/05 06:13:24;;;;;;;36.75;19.48;;;;;;;;;;5104640;28;20040;-44
2023/03/05 06:16:01;;;;;;;40.45;20.52;;;;;;;;;;5100318;28;20514;-44
2023/03/05 06:18:27;;;;;;;39.03;20.13;;;;;;;;;;5105687;28;20051;-43
2023/03/05 06:20:54;;;;;;;48.75;19.67;;;;;;;;;;5099975;28;20150;-45
2023/03/05 06:23:19;;;;;;;39.88;21.05;;;;;;;;;;5093229;27;20152;-43
2023/03/05 06:25:45;;;;;;;43.72;21.15;;;;;;;;;;5102851;28;20040;-43
2023/03/05 06:28:10;;;;;;;37.97;19.92;;;;;;;;;;5105647;28;20111;-43
2023/03/05 06:30:36;;;;;;;42.45;22.65;;;;;;;;;;5100021;28;20077;-44
2023/03/05 06:33:01;;;;;;;42.63;21.90;;;;;;;;;;5103461;28;20886;-43
2023/03/05 06:35:27;;;;;;;46.70;22.92;;;;;;;;;;5103192;28;20047;-43
2023/03/05 06:37:52;;;;;;;48.25;23.63;;;;;;;;;;5100658;28;20028;-45
2023/03/05 06:40:18;;;;;;;40.10;22.83;;;;;;;;;;5102849;28;20070;-42
2023/03/05 06:42:43;;;;;;;49.97;23.30;;;;;;;;;;5102709;27;20024;-44
2023/03/05 06:45:09;;;;;;;53.25;25.08;;;;;;;;;;5102276;28;20092;-43
2023/03/05 06:47:46;;;;;;;52.80;24.50;;;;;;;;;;5101268;28;20020;-43
2023/03/05 06:50:12;;;;;;;48.08;22.77;;;;;;;;;;5095628;27;20040;-44
2023/03/05 06:52:49;;;;;;;46.88;22.83;;;;;;;;;;5102701;28;20028;-44
2023/03/05 06:55:17;;;;;;;51.30;23.85;;;;;;;;;;5102581;28;20039;-45
2023/03/05 06:57:42;;;;;;;51.90;24.23;;;;;;;;;;5097058;28;20032;-43
2023/03/05 07:00:11;;;;;;;48.53;24.38;;;;;;;;;;5102241;28;20040;-43
2023/03/05 07:02:37;;;;;;;45.50;23.23;;;;;;;;;;5102513;28;21751;-43
2023/03/05 07:05:06;;;;;;;55.85;26.35;;;;;;;;;;5104346;28;20040;-46
2023/03/05 07:07:32;;;;;;;44.65;24.10;;;;;;;;;;5102579;28;20027;-44
2023/03/05 07:09:57;;;;;;;54.05;23.33;;;;;;;;;;5101679;28;20040;-44
2023/03/05 07:12:26;;;;;;;49.83;24.42;;;;;;;;;;5108605;28;20138;-43
2023/03/05 07:14:51;;;;;;;52.45;24.83;;;;;;;;;;5095074;27;20044;-43
2023/03/05 07:17:23;;;;;;;48.00;22.90;;;;;;;;;;5097424;28;20068;-44
2023/03/05 07:19:48;;;;;;;56.40;24.87;;;;;;;;;;5097881;28;20032;-43
2023/03/05 07:22:13;;;;;;;45.22;23.23;;;;;;;;;;5099184;28;20038;-43
2023/03/05 07:24:39;;;;;;;48.42;24.63;;;;;;;;;;5093468;28;20044;-44
2023/03/05 07:27:04;;;;;;;53.85;24.98;;;;;;;;;;5105044;28;20024;-43
2023/03/05 07:29:39;;;;;;;55.40;25.77;;;;;;;;;;5099822;28;20476;-44
2023/03/05 07:32:04;;;;;;;53.90;25.23;;;;;;;;;;5102432;27;20121;-45
2023/03/05 07:34:30;;;;;;;54.55;27.23;;;;;;;;;;5100919;27;20036;-45
2023/03/05 07:36:55;;;;;;;54.03;27.05;;;;;;;;;;5096811;28;20016;-46
2023/03/05 07:39:20;;;;;;;55.45;26.80;;;;;;;;;;5098495;28;20555;-43
2023/03/05 07:41:48;;;;;;;55.67;25.27;;;;;;;;;;5097774;28;20023;-43
2023/03/05 07:44:14;;;;;;;56.95;26.52;;;;;;;;;;5103161;28;20138;-45
2023/03/05 07:46:40;;;;;;;49.85;25.52;;;;;;;;;;5096069;28;20153;-44
2023/03/05 07:49:08;;;;;;;50.15;26.17;;;;;;;;;;5096755;28;20051;-45
2023/03/05 07:51:34;;;;;;;65.68;25.27;;;;;;;;;;5098035;27;20063;-44
2023/03/05 07:53:59;;;;;;;49.40;25.05;;;;;;;;;;5101367;28;20067;-43
2023/03/05 07:56:30;;;;;;;49.50;26.90;;;;;;;;;;5098037;28;20032;-43
2023/03/05 07:59:00;;;;;;;45.70;23.73;;;;;;;;;;5098188;28;20571;-45
2023/03/05 08:01:27;;;;;;;55.95;26.05;;;;;;;;;;5099228;28;20036;-45
2023/03/05 08:03:52;;;;;;;52.53;26.40;;;;;;;;;;5093225;28;20187;-46
2023/03/05 08:06:18;;;;;;;50.53;25.27;;;;;;;;;;5097812;28;20031;-44
2023/03/05 08:08:52;;;;;;;52.33;25.85;;;;;;;;;;5094907;28;20055;-46
2023/03/05 08:11:18;;;;;;;51.97;26.17;;;;;;;;;;5097125;28;20060;-44
2023/03/05 08:13:46;;;;;;;48.55;24.10;;;;;;;;;;5092664;27;20061;-44
2023/03/05 08:16:21;;;;;;;54.58;27.38;;;;;;;;;;5095285;28;20388;-44
2023/03/05 08:18:57;;;;;;;52.33;25.95;;;;;;;;;;5096034;28;20552;-44
2023/03/05 08:21:28;;;;;;;53.17;25.20;;;;;;;;;;5099968;28;20118;-45
2023/03/05 08:23:57;;;;;;;46.92;25.30;;;;;;;;;;5097281;28;20063;-44
2023/03/05 08:26:26;;;;;;;47.63;25.05;;;;;;;;;;5095668;28;20495;-48
2023/03/05 08:28:52;;;;;;;53.85;25.77;;;;;;;;;;5102530;28;20815;-45
2023/03/05 08:31:20;;;;;;;49.08;25.73;;;;;;;;;;5098218;28;20032;-45
2023/03/05 08:33:49;;;;;;;53.17;25.42;;;;;;;;;;5098216;28;20043;-44
2023/03/05 08:36:17;;;;;;;54.17;26.25;;;;;;;;;;5096386;28;20111;-46
2023/03/05 08:38:45;;;;;;;46.22;24.85;;;;;;;;;;5096382;28;20035;-45
2023/03/05 08:41:20;;;;;;;54.50;26.15;;;;;;;;;;5094774;28;20032;-44
2023/03/05 08:43:45;;;;;;;48.38;25.30;;;;;;;;;;5095775;28;20044;-44
2023/03/05 08:46:12;;;;;;;45.40;25.25;;;;;;;;;;5100235;28;20024;-46
2023/03/05 08:48:40;;;;;;;55.55;27.30;;;;;;;;;;5098397;28;20044;-44
2023/03/05 08:51:08;;;;;;;49.15;25.25;;;;;;;;;;5098303;28;20153;-43
2023/03/05 08:53:41;;;;;;;50.20;25.33;;;;;;;;;;5098889;28;20043;-43
2023/03/05 08:56:07;;;;;;;48.28;26.25;;;;;;;;;;5100401;28;20465;-47
2023/03/05 08:58:32;;;;;;;44.53;24.67;;;;;;;;;;5098327;28;20048;-44
2023/03/05 09:00:58;;;;;;;46.90;25.95;;;;;;;;;;5097347;28;20062;-44
2023/03/05 09:03:23;;;;;;;45.40;24.70;;;;;;;;;;5094644;28;20024;-45
2023/03/05 09:05:50;;;;;;;48.33;25.90;;;;;;;;;;5102856;28;20024;-43
2023/03/05 09:08:21;;;;;;;47.70;25.95;;;;;;;;;;5103758;28;20035;-44
2023/03/05 09:10:46;;;;;;;49.38;25.73;;;;;;;;;;5106888;28;20042;-46
2023/03/05 09:13:12;;;;;;;44.50;24.33;;;;;;;;;;5103448;28;20039;-44
2023/03/05 09:15:37;;;;;;;46.42;23.95;;;;;;;;;;5100907;28;20106;-47
2023/03/05 09:18:03;;;;;;;53.83;24.50;;;;;;;;;;5104252;28;20047;-45
2023/03/05 09:20:32;;;;;;;51.10;24.85;;;;;;;;;;5102428;28;20092;-44
2023/03/05 09:22:58;;;;;;;46.08;24.55;;;;;;;;;;5099432;28;20046;-49
2023/03/05 09:25:29;;;;;;;46.33;24.38;;;;;;;;;;5104151;28;20488;-44
2023/03/05 09:27:55;;;;;;;44.38;23.83;;;;;;;;;;5101329;28;20020;-47
2023/03/05 09:30:20;;;;;;;41.38;22.90;;;;;;;;;;5101988;28;20041;-43
2023/03/05 09:32:45;;;;;;;46.38;24.05;;;;;;;;;;5103065;28;20476;-43
2023/03/05 09:35:11;;;;;;;41.60;22.95;;;;;;;;;;5103426;28;20047;-45
2023/03/05 09:37:42;;;;;;;48.92;25.17;;;;;;;;;;5104216;28;20809;-45
2023/03/05 09:40:14;;;;;;;54.93;24.90;;;;;;;;;;5100299;27;20067;-45
2023/03/05 09:43:18;;;;;;;46.22;25.90;;;;;;;;;;5102600;28;20043;-43
2023/03/05 09:46:09;;;;;;;43.38;23.35;;;;;;;;;;5105596;28;20142;-44
2023/03/05 09:48:59;;;;;;;44.55;25.25;;;;;;;;;;5103985;27;20496;-44
2023/03/05 09:51:30;;;;;;;44.40;24.10;;;;;;;;;;5105268;28;20039;-42
2023/03/05 09:54:13;;;;;;;42.65;22.73;;;;;;;;;;5106074;28;20046;-42
2023/03/05 09:56:46;;;;;;;39.55;23.35;;;;;;;;;;5104423;28;20027;-44
2023/03/05 09:59:27;;;;;;;37.22;22.08;;;;;;;;;;5103227;28;20399;-42
2023/03/05 10:01:57;;;;;;;41.75;23.13;;;;;;;;;;5098858;28;20039;-44
2023/03/05 10:04:51;;;;;;;42.03;23.15;;;;;;;;;;5102512;28;20044;-41
2023/03/05 10:07:37;;;;;;;42.30;23.50;;;;;;;;;;5100709;28;20028;-47
2023/03/05 10:10:08;;;;;;;41.97;23.95;;;;;;;;;;5100024;28;20040;-41
2023/03/05 10:12:33;;;;;;;43.88;23.20;;;;;;;;;;5101872;28;20054;-44
2023/03/05 10:15:01;;;;;;;38.15;22.33;;;;;;;;;;5102834;28;20043;-42
2023/03/05 10:18:00;;;;;;;47.38;24.48;;;;;;;;;;5103286;28;20035;-43
2023/03/05 10:21:03;;;;;;;35.22;21.83;;;;;;;;;;5098444;28;20122;-41
2023/03/05 10:23:29;;;;;;;;;;;;;;;;;;5104372;28;20765;-42
2023/03/05 10:26:41;;;;;;;38.80;22.50;;;;;;;;;;5105978;28;19915;-41
2023/03/05 10:29:16;;;;;;;39.55;22.00;;;;;;;;;;5096826;28;20047;-45
2023/03/05 10:31:57;;;;;;;38.33;21.92;;;;;;;;;;5104014;28;20027;-43
2023/03/05 10:34:38;;;;;;;37.90;21.58;;;;;;;;;;5102653;27;20047;-43
2023/03/05 10:37:18;;;;;;;41.03;22.80;;;;;;;;;;5103371;28;20036;-42
2023/03/05 10:40:06;;;;;;;42.63;23.83;;;;;;;;;;5101246;28;20039;-42
2023/03/05 10:42:41;;;;;;;43.30;23.98;;;;;;;;;;5099358;28;20036;-44
2023/03/05 10:45:28;;;;;;;43.90;22.75;;;;;;;;;;5100409;28;20062;-48
2023/03/05 10:47:59;;;;;;;37.78;22.35;;;;;;;;;;5096773;28;20032;-47
2023/03/05 10:50:35;;;;;;;39.63;22.77;;;;;;;;;;5102260;27;20088;-43
2023/03/05 10:53:16;;;;;;;39.60;21.75;;;;;;;;;;5095612;28;20073;-43
2023/03/05 10:55:41;;;;;;;37.35;22.20;;;;;;;;;;5101816;28;20123;-42
2023/03/05 10:58:15;;;;;;;33.00;21.42;;;;;;;;;;5102960;27;20534;-43
2023/03/05 11:01:02;;;;;;;38.72;21.83;;;;;;;;;;5101293;28;20097;-45
2023/03/05 11:03:49;;;;;;;36.20;21.05;;;;;;;;;;5103299;28;20047;-44
2023/03/05 11:06:48;;;;;;;35.45;21.25;;;;;;;;;;5099003;28;20039;-43
2023/03/05 11:09:27;;;;;;;36.65;21.63;;;;;;;;;;5101202;27;20036;-43
2023/03/05 11:12:03;;;;;;;44.35;22.40;;;;;;;;;;5104502;28;20028;-43
2023/03/05 11:14:32;;;;;;;41.03;21.70;;;;;;;;;;5101782;28;20039;-46
2023/03/05 11:16:59;;;;;;;35.38;21.17;;;;;;;;;;5101865;28;20040;-43
2023/03/05 11:19:28;;;;;;;40.13;23.05;;;;;;;;;;5099223;27;20493;-43
2023/03/05 11:22:13;;;;;;;44.20;23.10;;;;;;;;;;5101220;28;20043;-42
2023/03/05 11:24:40;;;;;;;50.00;22.63;;;;;;;;;;5096018;28;20039;-45
2023/03/05 11:27:30;;;;;;;36.10;22.45;;;;;;;;;;5099868;28;20425;-43
2023/03/05 11:29:56;;;;;;;38.15;20.88;;;;;;;;;;5096409;27;20066;-45
2023/03/05 11:32:28;;;;;;;39.28;20.70;;;;;;;;;;5099476;28;20110;-44
2023/03/05 11:34:55;;;;;;;39.42;22.33;;;;;;;;;;5099134;28;20043;-45
2023/03/05 11:37:22;;;;;;;34.35;20.83;;;;;;;;;;5096354;28;20031;-45
2023/03/05 11:39:49;;;;;;;33.35;20.30;;;;;;;;;;5102938;28;20040;-44
2023/03/05 11:42:23;;;;;;;37.67;21.13;;;;;;;;;;5101474;28;20499;-43
2023/03/05 11:44:57;;;;;;;35.55;21.25;;;;;;;;;;5101961;28;20043;-43
2023/03/05 11:47:25;;;;;;;35.42;21.60;;;;;;;;;;5104574;28;20422;-46
2023/03/05 11:50:19;;;;;;;36.00;20.63;;;;;;;;;;5098768;27;20040;-46
2023/03/05 11:53:09;;;;;;;41.85;25.35;;;;;;;;;;5097520;28;20560;-42
2023/03/05 11:55:42;;;;;;;35.60;22.05;;;;;;;;;;5096314;28;20122;-44
2023/03/05 11:58:25;;;;;;;35.42;20.48;;;;;;;;;;5096606;27;20034;-42
2023/03/05 12:00:50;;;;;;;;;;;;;;;;;;5102977;28;20102;-43
2023/03/05 12:03:20;;;;;;;34.75;20.50;;;;;;;;;;5100367;28;20008;-42
2023/03/05 12:06:17;;;;;;;37.53;19.52;;;;;;;;;;5097447;28;20440;-43
2023/03/05 12:08:50;;;;;;;35.80;20.75;;;;;;;;;;5098263;28;20039;-49
2023/03/05 12:11:27;;;;;;;39.78;21.17;;;;;;;;;;5100308;28;20064;-45
2023/03/05 12:14:04;;;;;;;37.80;21.20;;;;;;;;;;5103012;28;20576;-43
2023/03/05 12:16:44;;;;;;;30.88;20.08;;;;;;;;;;5100553;28;20031;-44
2023/03/05 12:19:40;;;;;;;30.00;19.65;;;;;;;;;;5100499;28;20100;-46
2023/03/05 12:22:25;;;;;;;31.35;19.85;;;;;;;;;;5099755;28;20035;-44
2023/03/05 12:24:51;;;;;;;33.97;20.05;;;;;;;;;;5100412;28;20047;-42
2023/03/05 12:27:35;;;;;;;28.80;19.45;;;;;;;;;;5097291;28;20460;-45
2023/03/05 12:30:04;;;;;;;34.10;19.77;;;;;;;;;;5101508;28;20038;-43
2023/03/05 12:32:33;;;;;;;35.13;20.20;;;;;;;;;;5099928;28;20030;-49
2023/03/05 12:34:59;;;;;;;35.45;20.08;;;;;;;;;;5099754;28;20044;-44
2023/03/05 12:37:24;;;;;;;34.40;19.08;;;;;;;;;;5101193;28;20468;-48
2023/03/05 12:40:21;;;;;;;31.80;19.50;;;;;;;;;;5096996;28;20050;-49
2023/03/05 12:42:56;;;;;;;32.35;18.88;;;;;;;;;;5096846;28;20115;-42
2023/03/05 12:45:24;;;;;;;29.50;18.42;;;;;;;;;;5102752;27;20047;-43
2023/03/05 12:47:55;;;;;;;32.13;20.60;;;;;;;;;;5099603;28;20483;-45
2023/03/05 12:50:27;;;;;;;34.75;20.20;;;;;;;;;;5099887;28;20055;-44
2023/03/05 12:52:53;;;;;;;33.30;19.90;;;;;;;;;;5097528;28;20099;-45
2023/03/05 12:55:46;;;;;;;32.22;19.27;;;;;;;;;;5097449;28;20052;-43
2023/03/05 12:58:30;;;;;;;;;;;;;;;;;;5098207;28;20032;-43
2023/03/05 13:01:10;;;;;;;34.85;19.15;;;;;;;;;;5100153;28;20842;-42
2023/03/05 13:04:00;;;;;;;34.22;18.67;;;;;;;;;;5104235;28;20036;-43
2023/03/05 13:06:32;;;;;;;32.38;19.65;;;;;;;;;;5101441;28;20027;-48
2023/03/05 13:08:58;;;;;;;;;;;;;;;;;;5095982;28;20039;-42
2023/03/05 13:11:24;;;;;;;31.27;18.27;;;;;;;;;;5098611;28;20450;-47
2023/03/05 13:13:59;;;;;;;32.28;18.38;;;;;;;;;;5097308;27;20043;-42
2023/03/05 13:16:35;;;;;;;38.17;19.48;;;;;;;;;;5099357;28;20028;-45
2023/03/05 13:19:15;;;;;;;35.03;18.15;;;;;;;;;;5098890;28;20040;-43
2023/03/05 13:21:40;;;;;;;33.53;18.00;;;;;;;;;;5098049;28;20388;-43
2023/03/05 13:24:18;;;;;;;33.92;17.77;;;;;;;;;;5098722;27;20036;-45
2023/03/05 13:26:44;;;;;;;31.55;18.98;;;;;;;;;;5096641;28;20043;-43
2023/03/05 13:29:18;;;;;;;36.13;19.75;;;;;;;;;;5099666;28;20035;-43
2023/03/05 13:32:03;;;;;;;33.38;18.77;;;;;;;;;;5100459;28;20028;-43
2023/03/05 13:34:31;;;;;;;29.83;16.75;;;;;;;;;;5099629;28;20058;-46
2023/03/05 13:37:21;;;;;;;36.30;18.65;;;;;;;;;;5096006;28;20100;-44
2023/03/05 13:39:49;;;;;;;31.42;19.67;;;;;;;;;;5098341;28;20512;-49
2023/03/05 13:42:24;;;;;;;32.60;18.65;;;;;;;;;;5098858;28;20054;-46
2023/03/05 13:45:04;;;;;;;36.33;18.60;;;;;;;;;;5101227;28;20488;-47
2023/03/05 13:47:32;;;;;;;28.23;17.58;;;;;;;;;;5101993;28;20073;-43
2023/03/05 13:50:00;;;;;;;34.53;20.20;;;;;;;;;;5102567;27;20082;-43
2023/03/05 13:52:28;;;;;;;26.23;16.33;;;;;;;;;;5104453;28;20016;-47
2023/03/05 13:54:58;;;;;;;32.88;17.85;;;;;;;;;;5102882;28;20040;-46
2023/03/05 13:57:34;;;;;;;30.58;18.73;;;;;;;;;;5102187;28;20032;-50
2023/03/05 14:00:26;;;;;;;25.45;16.40;;;;;;;;;;5100126;28;20047;-42
2023/03/05 14:02:53;;;;;;;32.00;18.27;;;;;;;;;;5103534;28;20035;-48
2023/03/05 14:05:22;;;;;;;30.08;17.90;;;;;;;;;;5102091;28;22377;-45
2023/03/05 14:07:49;;;;;;;29.40;17.30;;;;;;;;;;5103368;28;20032;-48
2023/03/05 14:10:36;;;;;;;27.73;16.58;;;;;;;;;;5099056;28;20082;-43
2023/03/05 14:13:18;;;;;;;36.33;16.83;;;;;;;;;;5103015;28;20097;-43
2023/03/05 14:16:07;;;;;;;29.10;16.52;;;;;;;;;;5101196;28;20032;-43
2023/03/05 14:18:33;;;;;;;24.08;15.25;;;;;;;;;;5099992;28;20127;-45
2023/03/05 14:21:10;;;;;;;22.77;15.48;;;;;;;;;;5099884;28;20597;-43
2023/03/05 14:23:37;;;;;;;25.27;15.55;;;;;;;;;;5099601;28;20055;-50
2023/03/05 14:26:18;;;;;;;31.13;16.00;;;;;;;;;;5100555;28;20027;-46
2023/03/05 14:28:49;;;;;;;25.05;15.10;;;;;;;;;;5099958;27;20043;-47
2023/03/05 14:31:16;;;;;;;26.13;16.00;;;;;;;;;;5101391;28;20045;-46
2023/03/05 14:33:51;;;;;;;25.88;14.82;;;;;;;;;;5099151;28;20500;-44
2023/03/05 14:36:24;;;;;;;33.25;15.45;;;;;;;;;;5104435;28;20070;-43
2023/03/05 14:39:00;;;;;;;20.63;13.70;;;;;;;;;;5100537;28;20039;-44